Terminal Aerodrome Forecast
Issued by NWS Nashville, TN

Home | Current Version | Previous Version | Text Only | Print | Product List | Glossary On
Versions: 1 2 3 4 5 6 7 8 9 10 11 12 13 14 15 16 17 18 19 20 21 22 23 24 25
641
FTUS44 KOHX 130521
TAFCSV
TAF
KCSV 130521Z 1306/1406 31010G18KT P6SM -SN BKN029 OVC035
     FM131300 36008KT P6SM BKN040
     FM131800 35006KT P6SM BKN250
     FM140500 07003KT P6SM OVC100=

USA.gov is the U.S. government's official web portal to all federal, state and local government web resources and services.